sensor_id;sensor_type;location;lat;lon;timestamp;P1;durP1;ratioP1;P2;durP2;ratioP2
3271;SDS011;1648;50.022;8.424;2023-04-25T00:02:48;5.72;;;4.78;;
3271;SDS011;1648;50.022;8.424;2023-04-25T00:07:52;7.85;;;5.28;;
3271;SDS011;1648;50.022;8.424;2023-04-25T00:12:54;6.25;;;4.93;;
3271;SDS011;1648;50.022;8.424;2023-04-25T00:17:55;7.03;;;5.78;;
3271;SDS011;1648;50.022;8.424;2023-04-25T00:22:58;9.23;;;5.45;;
3271;SDS011;1648;50.022;8.424;2023-04-25T00:28:00;7.28;;;5.85;;
3271;SDS011;1648;50.022;8.424;2023-04-25T00:33:02;8.05;;;5.32;;
3271;SDS011;1648;50.022;8.424;2023-04-25T00:38:05;9.18;;;5.82;;
3271;SDS011;1648;50.022;8.424;2023-04-25T00:43:07;8.05;;;5.68;;
3271;SDS011;1648;50.022;8.424;2023-04-25T00:48:08;10.10;;;6.03;;
3271;SDS011;1648;50.022;8.424;2023-04-25T00:53:11;8.95;;;6.82;;
3271;SDS011;1648;50.022;8.424;2023-04-25T00:58:13;11.85;;;7.72;;
3271;SDS011;1648;50.022;8.424;2023-04-25T01:03:15;9.73;;;7.32;;
3271;SDS011;1648;50.022;8.424;2023-04-25T01:08:18;11.57;;;7.80;;
3271;SDS011;1648;50.022;8.424;2023-04-25T01:13:23;10.68;;;7.97;;
3271;SDS011;1648;50.022;8.424;2023-04-25T01:18:24;13.40;;;8.30;;
3271;SDS011;1648;50.022;8.424;2023-04-25T01:23:28;10.13;;;7.97;;
3271;SDS011;1648;50.022;8.424;2023-04-25T01:28:29;12.98;;;8.98;;
3271;SDS011;1648;50.022;8.424;2023-04-25T01:33:32;15.30;;;9.63;;
3271;SDS011;1648;50.022;8.424;2023-04-25T01:38:35;11.43;;;8.23;;
3271;SDS011;1648;50.022;8.424;2023-04-25T01:43:37;12.57;;;8.57;;
3271;SDS011;1648;50.022;8.424;2023-04-25T01:48:39;14.82;;;8.45;;
3271;SDS011;1648;50.022;8.424;2023-04-25T01:53:42;13.20;;;8.77;;
3271;SDS011;1648;50.022;8.424;2023-04-25T01:58:45;11.48;;;8.88;;
3271;SDS011;1648;50.022;8.424;2023-04-25T02:03:49;12.27;;;9.00;;
3271;SDS011;1648;50.022;8.424;2023-04-25T02:09:04;13.23;;;9.38;;
3271;SDS011;1648;50.022;8.424;2023-04-25T02:14:06;12.23;;;8.43;;
3271;SDS011;1648;50.022;8.424;2023-04-25T02:19:28;13.77;;;8.85;;
3271;SDS011;1648;50.022;8.424;2023-04-25T02:24:31;14.43;;;9.25;;
3271;SDS011;1648;50.022;8.424;2023-04-25T02:29:32;14.77;;;9.15;;
3271;SDS011;1648;50.022;8.424;2023-04-25T02:34:34;15.60;;;10.30;;
3271;SDS011;1648;50.022;8.424;2023-04-25T02:39:37;15.95;;;10.45;;
3271;SDS011;1648;50.022;8.424;2023-04-25T02:44:39;18.30;;;10.30;;
3271;SDS011;1648;50.022;8.424;2023-04-25T02:49:40;15.95;;;10.15;;
3271;SDS011;1648;50.022;8.424;2023-04-25T02:54:44;20.95;;;10.93;;
3271;SDS011;1648;50.022;8.424;2023-04-25T02:59:45;19.70;;;11.85;;
3271;SDS011;1648;50.022;8.424;2023-04-25T03:04:47;16.02;;;9.82;;
3271;SDS011;1648;50.022;8.424;2023-04-25T03:09:50;13.60;;;10.57;;
3271;SDS011;1648;50.022;8.424;2023-04-25T03:14:52;17.52;;;9.60;;
3271;SDS011;1648;50.022;8.424;2023-04-25T03:19:54;15.80;;;9.23;;
3271;SDS011;1648;50.022;8.424;2023-04-25T03:24:57;16.92;;;9.85;;
3271;SDS011;1648;50.022;8.424;2023-04-25T03:29:59;17.50;;;10.13;;
3271;SDS011;1648;50.022;8.424;2023-04-25T03:35:01;15.82;;;10.60;;
3271;SDS011;1648;50.022;8.424;2023-04-25T03:40:06;17.70;;;9.55;;
3271;SDS011;1648;50.022;8.424;2023-04-25T03:45:46;18.33;;;11.25;;
3271;SDS011;1648;50.022;8.424;2023-04-25T03:50:50;15.68;;;10.50;;
3271;SDS011;1648;50.022;8.424;2023-04-25T03:55:53;20.38;;;12.75;;
3271;SDS011;1648;50.022;8.424;2023-04-25T04:00:57;21.75;;;13.38;;
3271;SDS011;1648;50.022;8.424;2023-04-25T04:05:59;18.70;;;8.93;;
3271;SDS011;1648;50.022;8.424;2023-04-25T04:11:02;19.00;;;9.75;;
3271;SDS011;1648;50.022;8.424;2023-04-25T04:16:04;18.85;;;9.60;;
3271;SDS011;1648;50.022;8.424;2023-04-25T04:21:07;22.95;;;11.65;;
3271;SDS011;1648;50.022;8.424;2023-04-25T04:26:13;20.15;;;9.98;;
3271;SDS011;1648;50.022;8.424;2023-04-25T04:31:41;13.73;;;7.38;;
3271;SDS011;1648;50.022;8.424;2023-04-25T04:36:44;13.77;;;6.75;;
3271;SDS011;1648;50.022;8.424;2023-04-25T04:41:48;16.25;;;7.25;;
3271;SDS011;1648;50.022;8.424;2023-04-25T04:47:06;19.95;;;7.97;;
3271;SDS011;1648;50.022;8.424;2023-04-25T04:52:26;16.55;;;11.30;;
3271;SDS011;1648;50.022;8.424;2023-04-25T04:57:37;17.25;;;8.90;;
3271;SDS011;1648;50.022;8.424;2023-04-25T05:02:51;20.05;;;9.85;;
3271;SDS011;1648;50.022;8.424;2023-04-25T05:08:16;16.88;;;8.13;;
3271;SDS011;1648;50.022;8.424;2023-04-25T05:13:38;22.27;;;9.75;;
3271;SDS011;1648;50.022;8.424;2023-04-25T05:18:52;17.48;;;8.48;;
3271;SDS011;1648;50.022;8.424;2023-04-25T05:24:03;18.30;;;8.27;;
3271;SDS011;1648;50.022;8.424;2023-04-25T05:29:09;17.45;;;9.32;;
3271;SDS011;1648;50.022;8.424;2023-04-25T05:34:27;17.65;;;8.50;;
3271;SDS011;1648;50.022;8.424;2023-04-25T05:39:32;13.98;;;7.10;;
3271;SDS011;1648;50.022;8.424;2023-04-25T05:44:54;15.68;;;6.70;;
3271;SDS011;1648;50.022;8.424;2023-04-25T05:50:06;14.80;;;7.05;;
3271;SDS011;1648;50.022;8.424;2023-04-25T05:55:27;17.85;;;7.30;;
3271;SDS011;1648;50.022;8.424;2023-04-25T06:00:32;12.13;;;6.78;;
3271;SDS011;1648;50.022;8.424;2023-04-25T06:05:34;11.80;;;6.03;;
3271;SDS011;1648;50.022;8.424;2023-04-25T06:10:36;15.52;;;5.90;;
3271;SDS011;1648;50.022;8.424;2023-04-25T06:15:39;15.73;;;6.25;;
3271;SDS011;1648;50.022;8.424;2023-04-25T06:20:41;11.82;;;6.80;;
3271;SDS011;1648;50.022;8.424;2023-04-25T06:25:42;11.48;;;6.30;;
3271;SDS011;1648;50.022;8.424;2023-04-25T06:30:46;11.80;;;5.50;;
3271;SDS011;1648;50.022;8.424;2023-04-25T06:35:51;13.15;;;5.97;;
3271;SDS011;1648;50.022;8.424;2023-04-25T06:40:57;14.30;;;6.15;;
3271;SDS011;1648;50.022;8.424;2023-04-25T06:46:04;15.35;;;6.00;;
3271;SDS011;1648;50.022;8.424;2023-04-25T06:51:13;12.20;;;6.25;;
3271;SDS011;1648;50.022;8.424;2023-04-25T06:56:15;10.50;;;5.45;;
3271;SDS011;1648;50.022;8.424;2023-04-25T07:01:29;14.80;;;6.60;;
3271;SDS011;1648;50.022;8.424;2023-04-25T07:06:32;10.13;;;6.07;;
3271;SDS011;1648;50.022;8.424;2023-04-25T07:11:34;14.23;;;5.85;;
3271;SDS011;1648;50.022;8.424;2023-04-25T07:16:37;11.80;;;5.28;;
3271;SDS011;1648;50.022;8.424;2023-04-25T07:21:39;13.95;;;5.20;;
3271;SDS011;1648;50.022;8.424;2023-04-25T07:26:41;15.43;;;5.40;;
3271;SDS011;1648;50.022;8.424;2023-04-25T07:32:13;10.05;;;5.25;;
3271;SDS011;1648;50.022;8.424;2023-04-25T07:37:16;11.77;;;6.00;;
3271;SDS011;1648;50.022;8.424;2023-04-25T07:42:31;10.35;;;5.10;;
3271;SDS011;1648;50.022;8.424;2023-04-25T07:47:35;10.15;;;4.50;;
3271;SDS011;1648;50.022;8.424;2023-04-25T07:52:37;11.15;;;4.70;;
3271;SDS011;1648;50.022;8.424;2023-04-25T07:58:01;9.63;;;4.10;;
3271;SDS011;1648;50.022;8.424;2023-04-25T08:03:06;11.23;;;4.53;;
3271;SDS011;1648;50.022;8.424;2023-04-25T08:08:08;11.98;;;4.28;;
3271;SDS011;1648;50.022;8.424;2023-04-25T08:13:10;8.77;;;3.90;;
3271;SDS011;1648;50.022;8.424;2023-04-25T08:18:14;13.55;;;4.60;;
3271;SDS011;1648;50.022;8.424;2023-04-25T08:23:19;6.97;;;3.17;;
3271;SDS011;1648;50.022;8.424;2023-04-25T08:28:27;6.97;;;3.88;;
3271;SDS011;1648;50.022;8.424;2023-04-25T08:33:32;6.28;;;3.28;;
3271;SDS011;1648;50.022;8.424;2023-04-25T08:39:00;6.85;;;3.95;;
3271;SDS011;1648;50.022;8.424;2023-04-25T08:44:02;6.18;;;3.30;;
3271;SDS011;1648;50.022;8.424;2023-04-25T08:49:06;7.13;;;3.42;;
3271;SDS011;1648;50.022;8.424;2023-04-25T08:54:09;8.88;;;3.63;;
3271;SDS011;1648;50.022;8.424;2023-04-25T08:59:32;8.52;;;3.72;;
3271;SDS011;1648;50.022;8.424;2023-04-25T09:04:36;7.63;;;3.55;;
3271;SDS011;1648;50.022;8.424;2023-04-25T09:09:38;9.82;;;4.13;;
3271;SDS011;1648;50.022;8.424;2023-04-25T09:14:40;11.15;;;4.57;;
3271;SDS011;1648;50.022;8.424;2023-04-25T09:19:58;10.18;;;4.53;;
3271;SDS011;1648;50.022;8.424;2023-04-25T09:25:11;5.90;;;4.22;;
3271;SDS011;1648;50.022;8.424;2023-04-25T09:30:16;8.30;;;4.40;;
3271;SDS011;1648;50.022;8.424;2023-04-25T09:35:37;8.55;;;4.72;;
3271;SDS011;1648;50.022;8.424;2023-04-25T09:40:43;11.05;;;5.78;;
3271;SDS011;1648;50.022;8.424;2023-04-25T09:45:56;6.55;;;4.38;;
3271;SDS011;1648;50.022;8.424;2023-04-25T09:51:05;8.27;;;5.07;;
3271;SDS011;1648;50.022;8.424;2023-04-25T09:56:09;11.50;;;5.78;;
3271;SDS011;1648;50.022;8.424;2023-04-25T10:01:12;7.88;;;5.03;;
3271;SDS011;1648;50.022;8.424;2023-04-25T10:06:28;8.75;;;6.15;;
3271;SDS011;1648;50.022;8.424;2023-04-25T10:11:30;11.38;;;5.88;;
3271;SDS011;1648;50.022;8.424;2023-04-25T10:16:33;10.45;;;5.85;;
3271;SDS011;1648;50.022;8.424;2023-04-25T10:21:36;10.15;;;6.13;;
3271;SDS011;1648;50.022;8.424;2023-04-25T10:26:39;12.95;;;5.57;;
3271;SDS011;1648;50.022;8.424;2023-04-25T10:31:44;6.88;;;5.55;;
3271;SDS011;1648;50.022;8.424;2023-04-25T10:36:52;9.35;;;5.10;;
3271;SDS011;1648;50.022;8.424;2023-04-25T10:41:55;11.48;;;5.28;;
3271;SDS011;1648;50.022;8.424;2023-04-25T10:46:59;12.55;;;5.57;;
3271;SDS011;1648;50.022;8.424;2023-04-25T10:52:13;13.63;;;5.20;;
3271;SDS011;1648;50.022;8.424;2023-04-25T10:57:26;10.20;;;5.07;;
3271;SDS011;1648;50.022;8.424;2023-04-25T11:02:31;11.82;;;5.35;;
3271;SDS011;1648;50.022;8.424;2023-04-25T11:07:37;12.25;;;5.25;;
3271;SDS011;1648;50.022;8.424;2023-04-25T11:12:41;9.05;;;4.88;;
3271;SDS011;1648;50.022;8.424;2023-04-25T11:17:43;12.38;;;5.03;;
3271;SDS011;1648;50.022;8.424;2023-04-25T11:22:46;8.13;;;5.00;;
3271;SDS011;1648;50.022;8.424;2023-04-25T11:27:49;11.63;;;5.80;;
3271;SDS011;1648;50.022;8.424;2023-04-25T11:32:52;9.40;;;4.85;;
3271;SDS011;1648;50.022;8.424;2023-04-25T11:37:55;8.75;;;5.28;;
3271;SDS011;1648;50.022;8.424;2023-04-25T11:42:59;9.75;;;4.97;;
3271;SDS011;1648;50.022;8.424;2023-04-25T11:48:01;12.13;;;4.75;;
3271;SDS011;1648;50.022;8.424;2023-04-25T11:53:05;11.48;;;5.07;;
3271;SDS011;1648;50.022;8.424;2023-04-25T11:58:06;9.45;;;4.07;;
3271;SDS011;1648;50.022;8.424;2023-04-25T12:03:08;7.32;;;4.65;;
3271;SDS011;1648;50.022;8.424;2023-04-25T12:08:12;9.88;;;4.53;;
3271;SDS011;1648;50.022;8.424;2023-04-25T12:13:17;8.98;;;4.18;;
3271;SDS011;1648;50.022;8.424;2023-04-25T12:18:20;9.10;;;4.20;;
3271;SDS011;1648;50.022;8.424;2023-04-25T12:23:26;7.53;;;4.47;;
3271;SDS011;1648;50.022;8.424;2023-04-25T12:28:28;9.73;;;4.03;;
3271;SDS011;1648;50.022;8.424;2023-04-25T12:33:30;11.55;;;4.28;;
3271;SDS011;1648;50.022;8.424;2023-04-25T12:38:35;6.82;;;4.32;;
3271;SDS011;1648;50.022;8.424;2023-04-25T12:43:37;9.38;;;3.75;;
3271;SDS011;1648;50.022;8.424;2023-04-25T12:48:39;9.32;;;3.35;;
3271;SDS011;1648;50.022;8.424;2023-04-25T12:53:42;9.15;;;4.35;;
3271;SDS011;1648;50.022;8.424;2023-04-25T12:58:44;10.43;;;4.25;;
3271;SDS011;1648;50.022;8.424;2023-04-25T13:03:45;10.10;;;4.07;;
3271;SDS011;1648;50.022;8.424;2023-04-25T13:08:49;7.35;;;3.92;;
3271;SDS011;1648;50.022;8.424;2023-04-25T13:13:51;8.88;;;4.32;;
3271;SDS011;1648;50.022;8.424;2023-04-25T13:18:53;14.32;;;4.88;;
3271;SDS011;1648;50.022;8.424;2023-04-25T13:23:56;10.27;;;3.53;;
3271;SDS011;1648;50.022;8.424;2023-04-25T13:28:58;9.13;;;3.85;;
3271;SDS011;1648;50.022;8.424;2023-04-25T13:34:00;7.88;;;4.00;;
3271;SDS011;1648;50.022;8.424;2023-04-25T13:39:03;12.35;;;4.47;;
3271;SDS011;1648;50.022;8.424;2023-04-25T13:44:05;10.43;;;4.35;;
3271;SDS011;1648;50.022;8.424;2023-04-25T13:49:07;8.43;;;4.00;;
3271;SDS011;1648;50.022;8.424;2023-04-25T13:54:15;9.10;;;4.82;;
3271;SDS011;1648;50.022;8.424;2023-04-25T13:59:16;11.55;;;4.15;;
3271;SDS011;1648;50.022;8.424;2023-04-25T14:04:18;8.23;;;4.90;;
3271;SDS011;1648;50.022;8.424;2023-04-25T14:09:21;8.98;;;4.03;;
3271;SDS011;1648;50.022;8.424;2023-04-25T14:14:23;7.93;;;3.67;;
3271;SDS011;1648;50.022;8.424;2023-04-25T14:19:25;7.47;;;3.60;;
3271;SDS011;1648;50.022;8.424;2023-04-25T14:24:28;11.77;;;4.00;;
3271;SDS011;1648;50.022;8.424;2023-04-25T14:29:30;7.35;;;3.83;;
3271;SDS011;1648;50.022;8.424;2023-04-25T14:34:32;9.88;;;3.50;;
3271;SDS011;1648;50.022;8.424;2023-04-25T14:39:35;8.65;;;3.33;;
3271;SDS011;1648;50.022;8.424;2023-04-25T14:44:37;10.38;;;4.35;;
3271;SDS011;1648;50.022;8.424;2023-04-25T14:49:39;10.45;;;3.47;;
3271;SDS011;1648;50.022;8.424;2023-04-25T14:54:42;6.20;;;3.42;;
3271;SDS011;1648;50.022;8.424;2023-04-25T14:59:44;8.90;;;3.63;;
3271;SDS011;1648;50.022;8.424;2023-04-25T15:04:45;6.50;;;3.10;;
3271;SDS011;1648;50.022;8.424;2023-04-25T15:09:49;12.48;;;3.17;;
3271;SDS011;1648;50.022;8.424;2023-04-25T15:14:50;8.77;;;3.38;;
3271;SDS011;1648;50.022;8.424;2023-04-25T15:19:52;11.25;;;3.35;;
3271;SDS011;1648;50.022;8.424;2023-04-25T15:24:55;8.45;;;3.28;;
3271;SDS011;1648;50.022;8.424;2023-04-25T15:29:57;5.80;;;2.65;;
3271;SDS011;1648;50.022;8.424;2023-04-25T15:34:58;10.50;;;3.63;;
3271;SDS011;1648;50.022;8.424;2023-04-25T15:40:03;10.73;;;4.47;;
3271;SDS011;1648;50.022;8.424;2023-04-25T15:45:07;6.82;;;3.83;;
3271;SDS011;1648;50.022;8.424;2023-04-25T15:50:10;11.50;;;4.25;;
3271;SDS011;1648;50.022;8.424;2023-04-25T15:55:13;15.52;;;6.85;;
3271;SDS011;1648;50.022;8.424;2023-04-25T16:00:15;6.70;;;3.35;;
3271;SDS011;1648;50.022;8.424;2023-04-25T16:05:17;11.35;;;3.28;;
3271;SDS011;1648;50.022;8.424;2023-04-25T16:10:21;11.00;;;5.28;;
3271;SDS011;1648;50.022;8.424;2023-04-25T16:15:22;11.65;;;5.93;;
3271;SDS011;1648;50.022;8.424;2023-04-25T16:20:24;10.18;;;3.80;;
3271;SDS011;1648;50.022;8.424;2023-04-25T16:25:27;9.25;;;3.13;;
3271;SDS011;1648;50.022;8.424;2023-04-25T16:30:29;11.43;;;5.55;;
3271;SDS011;1648;50.022;8.424;2023-04-25T16:35:30;10.30;;;3.03;;
3271;SDS011;1648;50.022;8.424;2023-04-25T16:40:33;4.35;;;2.38;;
3271;SDS011;1648;50.022;8.424;2023-04-25T16:45:36;9.20;;;3.15;;
3271;SDS011;1648;50.022;8.424;2023-04-25T16:50:37;5.45;;;2.40;;
3271;SDS011;1648;50.022;8.424;2023-04-25T16:55:40;6.85;;;2.95;;
3271;SDS011;1648;50.022;8.424;2023-04-25T17:00:42;9.52;;;3.63;;
3271;SDS011;1648;50.022;8.424;2023-04-25T17:05:43;11.55;;;4.50;;
3271;SDS011;1648;50.022;8.424;2023-04-25T17:10:47;5.35;;;2.90;;
3271;SDS011;1648;50.022;8.424;2023-04-25T17:15:49;8.15;;;3.63;;
3271;SDS011;1648;50.022;8.424;2023-04-25T17:20:50;10.70;;;3.70;;
3271;SDS011;1648;50.022;8.424;2023-04-25T17:25:53;8.85;;;2.85;;
3271;SDS011;1648;50.022;8.424;2023-04-25T17:30:55;7.45;;;3.28;;
3271;SDS011;1648;50.022;8.424;2023-04-25T17:35:57;11.45;;;4.78;;
3271;SDS011;1648;50.022;8.424;2023-04-25T17:41:00;7.53;;;3.28;;
3271;SDS011;1648;50.022;8.424;2023-04-25T17:46:01;7.10;;;3.17;;
3271;SDS011;1648;50.022;8.424;2023-04-25T17:51:03;7.97;;;3.00;;
3271;SDS011;1648;50.022;8.424;2023-04-25T17:56:06;6.38;;;3.25;;
3271;SDS011;1648;50.022;8.424;2023-04-25T18:01:26;6.15;;;2.97;;
3271;SDS011;1648;50.022;8.424;2023-04-25T18:06:27;7.72;;;2.97;;
3271;SDS011;1648;50.022;8.424;2023-04-25T18:11:30;9.35;;;3.50;;
3271;SDS011;1648;50.022;8.424;2023-04-25T18:16:32;7.60;;;3.20;;
3271;SDS011;1648;50.022;8.424;2023-04-25T18:21:34;10.32;;;4.28;;
3271;SDS011;1648;50.022;8.424;2023-04-25T18:26:37;22.13;;;8.32;;
3271;SDS011;1648;50.022;8.424;2023-04-25T18:31:40;9.35;;;3.30;;
3271;SDS011;1648;50.022;8.424;2023-04-25T18:36:42;11.02;;;4.40;;
3271;SDS011;1648;50.022;8.424;2023-04-25T18:41:45;8.70;;;3.58;;
3271;SDS011;1648;50.022;8.424;2023-04-25T18:46:58;9.73;;;3.72;;
3271;SDS011;1648;50.022;8.424;2023-04-25T18:52:00;10.90;;;3.70;;
3271;SDS011;1648;50.022;8.424;2023-04-25T18:57:03;8.88;;;5.25;;
3271;SDS011;1648;50.022;8.424;2023-04-25T19:02:05;11.85;;;5.15;;
3271;SDS011;1648;50.022;8.424;2023-04-25T19:07:07;8.63;;;2.85;;
3271;SDS011;1648;50.022;8.424;2023-04-25T19:12:10;10.57;;;3.05;;
3271;SDS011;1648;50.022;8.424;2023-04-25T19:17:12;8.85;;;3.00;;
3271;SDS011;1648;50.022;8.424;2023-04-25T19:22:14;10.93;;;3.50;;
3271;SDS011;1648;50.022;8.424;2023-04-25T19:27:17;6.22;;;3.20;;
3271;SDS011;1648;50.022;8.424;2023-04-25T19:32:19;4.60;;;2.55;;
3271;SDS011;1648;50.022;8.424;2023-04-25T19:37:20;8.43;;;3.40;;
3271;SDS011;1648;50.022;8.424;2023-04-25T19:42:23;16.23;;;4.00;;
3271;SDS011;1648;50.022;8.424;2023-04-25T19:47:25;12.88;;;3.78;;
3271;SDS011;1648;50.022;8.424;2023-04-25T19:52:27;6.90;;;4.25;;
3271;SDS011;1648;50.022;8.424;2023-04-25T19:57:30;9.55;;;3.47;;
3271;SDS011;1648;50.022;8.424;2023-04-25T20:02:32;7.57;;;3.70;;
3271;SDS011;1648;50.022;8.424;2023-04-25T20:07:34;5.10;;;3.05;;
3271;SDS011;1648;50.022;8.424;2023-04-25T20:12:37;8.20;;;3.55;;
3271;SDS011;1648;50.022;8.424;2023-04-25T20:17:39;7.32;;;3.85;;
3271;SDS011;1648;50.022;8.424;2023-04-25T20:22:40;7.70;;;5.20;;
3271;SDS011;1648;50.022;8.424;2023-04-25T20:27:43;14.13;;;6.40;;
3271;SDS011;1648;50.022;8.424;2023-04-25T20:32:45;15.70;;;8.10;;
3271;SDS011;1648;50.022;8.424;2023-04-25T20:37:47;10.60;;;4.70;;
3271;SDS011;1648;50.022;8.424;2023-04-25T20:42:50;16.80;;;7.35;;
3271;SDS011;1648;50.022;8.424;2023-04-25T20:47:52;11.60;;;5.00;;
3271;SDS011;1648;50.022;8.424;2023-04-25T20:52:53;9.77;;;4.40;;
3271;SDS011;1648;50.022;8.424;2023-04-25T20:57:57;8.05;;;4.63;;
3271;SDS011;1648;50.022;8.424;2023-04-25T21:02:58;6.05;;;4.07;;
3271;SDS011;1648;50.022;8.424;2023-04-25T21:08:00;9.15;;;3.67;;
3271;SDS011;1648;50.022;8.424;2023-04-25T21:13:03;8.80;;;4.13;;
3271;SDS011;1648;50.022;8.424;2023-04-25T21:18:05;6.82;;;3.55;;
3271;SDS011;1648;50.022;8.424;2023-04-25T21:23:07;6.35;;;3.92;;
3271;SDS011;1648;50.022;8.424;2023-04-25T21:28:10;6.28;;;4.10;;
3271;SDS011;1648;50.022;8.424;2023-04-25T21:33:12;9.45;;;4.35;;
3271;SDS011;1648;50.022;8.424;2023-04-25T21:38:13;8.80;;;4.53;;
3271;SDS011;1648;50.022;8.424;2023-04-25T21:43:16;10.38;;;5.22;;
3271;SDS011;1648;50.022;8.424;2023-04-25T21:48:18;8.75;;;4.93;;
3271;SDS011;1648;50.022;8.424;2023-04-25T21:53:20;8.52;;;4.60;;
3271;SDS011;1648;50.022;8.424;2023-04-25T21:58:23;9.23;;;5.15;;
3271;SDS011;1648;50.022;8.424;2023-04-25T22:03:25;7.50;;;4.22;;
3271;SDS011;1648;50.022;8.424;2023-04-25T22:08:26;7.40;;;5.00;;
3271;SDS011;1648;50.022;8.424;2023-04-25T22:13:30;16.08;;;7.68;;
3271;SDS011;1648;50.022;8.424;2023-04-25T22:18:31;9.57;;;5.72;;
3271;SDS011;1648;50.022;8.424;2023-04-25T22:23:33;12.15;;;4.68;;
3271;SDS011;1648;50.022;8.424;2023-04-25T22:28:36;7.57;;;4.95;;
3271;SDS011;1648;50.022;8.424;2023-04-25T22:33:38;7.32;;;4.55;;
3271;SDS011;1648;50.022;8.424;2023-04-25T22:38:39;11.38;;;4.85;;
3271;SDS011;1648;50.022;8.424;2023-04-25T22:43:42;11.38;;;5.60;;
3271;SDS011;1648;50.022;8.424;2023-04-25T22:48:44;7.25;;;4.65;;
3271;SDS011;1648;50.022;8.424;2023-04-25T22:53:47;6.28;;;4.60;;
3271;SDS011;1648;50.022;8.424;2023-04-25T22:58:50;6.10;;;4.22;;
3271;SDS011;1648;50.022;8.424;2023-04-25T23:03:52;8.35;;;4.68;;
3271;SDS011;1648;50.022;8.424;2023-04-25T23:08:54;6.32;;;4.90;;
3271;SDS011;1648;50.022;8.424;2023-04-25T23:13:57;8.40;;;5.70;;
3271;SDS011;1648;50.022;8.424;2023-04-25T23:18:59;10.38;;;5.43;;
3271;SDS011;1648;50.022;8.424;2023-04-25T23:24:00;9.70;;;6.40;;
3271;SDS011;1648;50.022;8.424;2023-04-25T23:29:04;9.18;;;5.18;;
3271;SDS011;1648;50.022;8.424;2023-04-25T23:34:06;9.13;;;5.15;;
3271;SDS011;1648;50.022;8.424;2023-04-25T23:39:07;9.10;;;5.20;;
3271;SDS011;1648;50.022;8.424;2023-04-25T23:44:10;7.57;;;4.78;;
3271;SDS011;1648;50.022;8.424;2023-04-25T23:49:12;10.57;;;5.07;;
3271;SDS011;1648;50.022;8.424;2023-04-25T23:54:14;7.28;;;4.75;;
3271;SDS011;1648;50.022;8.424;2023-04-25T23:59:17;10.30;;;5.10;;
